Aplicació Alertes

Dades de l'estació automàtica Tírvia

?
?
Resum diari 23:00 TU
Dades diàries de l'estació meteorològica
Temperatura mitjana 1.3 °C
Temperatura màxima 10.3 °C 13:25 TU
Temperatura mínima -5.8 °C 7:42 TU
Humitat relativa mitjana 56%
Precipitació acumulada 0.0 mm
Ratxa màxima del vent (6 m) 30.6 km/h - 286º 18:13 TU
Pressió atmosfèrica mitjana 1009.9 hPa

El tram horari està expressat en Temps Universal (TU). Cal sumar una hora en horari d'hivern i dues en horari d'estiu per passar a l'hora oficial.

Tírvia

Metadades estació meteorol´gica
Municipi Tírvia
Comarca Pallars Sobirà
Altitud 954 m
Data alta 11.01.2018
Estat actual Operativa
Dades de període
Període
TU
TM
°C
TX
°C
TN
°C
HRM
%
PPT
mm
VVM (6 m)
km/h
DVM (6 m)
graus
VVX (6 m)
km/h
PM
hPa
00:00 - 00:30 -2.9 -2.8 -3.0 76 0.0 0.7 150 4.0 1011.3
00:30 - 01:00 -3.2 -2.9 -3.7 77 0.0 0.7 13 4.3 1011.3
01:00 - 01:30 -3.3 -3.0 -3.7 77 0.0 0.7 104 3.2 1011.4
01:30 - 02:00 -3.6 -3.4 -3.9 77 0.0 0.4 100 2.5 1011.7
02:00 - 02:30 -3.9 -3.3 -4.1 80 0.0 0.4 107 3.2 1012.0
02:30 - 03:00 -4.1 -3.4 -4.4 81 0.0 1.1 48 3.2 1012.1
03:00 - 03:30 -4.3 -4.1 -4.6 79 0.0 0.0 130 1.1 1012.2
03:30 - 04:00 -4.7 -4.5 -4.9 82 0.0 0.0 336 1.4 1012.2
04:00 - 04:30 -4.5 -4.3 -4.8 80 0.0 0.4 89 3.6 1012.2
04:30 - 05:00 -4.8 -4.3 -5.3 82 0.0 1.1 355 4.0 1012.5
05:00 - 05:30 -5.2 -4.8 -5.3 82 0.0 1.1 155 6.5 1012.8
05:30 - 06:00 -5.3 -4.8 -5.6 82 0.0 0.4 135 3.2 1013.0
06:00 - 06:30 -5.6 -5.4 -5.7 84 0.0 0.4 356 4.7 1013.2
06:30 - 07:00 -5.4 -5.0 -5.6 83 0.0 2.5 21 14.0 1013.3
07:00 - 07:30 -5.4 -5.1 -5.6 82 0.0 1.1 88 6.1 1013.8
07:30 - 08:00 -5.6 -5.3 -5.8 85 0.0 0.4 7 2.9 1014.0
08:00 - 08:30 -4.6 -3.7 -5.3 78 0.0 0.4 12 2.5 1013.7
08:30 - 09:00 -3.2 -2.9 -3.6 71 0.0 0.7 324 2.9 1012.9
09:00 - 09:30 -2.2 -1.2 -2.9 71 0.0 1.1 292 4.0 1012.3
09:30 - 10:00 -0.4 0.4 -1.1 61 0.0 1.4 296 5.0 1011.2
10:00 - 10:30 1.3 2.3 0.5 53 0.0 2.2 251 6.5 1010.3
10:30 - 11:00 3.2 3.7 2.4 47 0.0 2.2 278 7.2 1009.0
11:00 - 11:30 4.8 5.7 3.7 39 0.0 1.1 262 5.0 1007.9
11:30 - 12:00 6.5 7.3 5.6 35 0.0 2.5 207 8.3 1006.9
12:00 - 12:30 7.9 8.4 7.4 28 0.0 2.9 257 8.6 1005.9
12:30 - 13:00 8.7 9.4 8.1 27 0.0 2.2 272 6.8 1005.2
13:00 - 13:30 9.5 10.3 9.0 26 0.0 2.2 268 11.9 1004.4
13:30 - 14:00 9.4 10.0 9.1 24 0.0 5.0 246 11.9 1004.3
14:00 - 14:30 9.2 9.4 9.0 23 0.0 7.2 241 14.8 1004.2
14:30 - 15:00 9.4 9.7 9.0 25 0.0 8.3 244 21.2 1004.3
15:00 - 15:30 8.6 9.0 8.3 28 0.0 14.4 255 25.6 1004.7
15:30 - 16:00 8.0 8.4 7.8 31 0.0 14.0 255 23.4 1005.1
16:00 - 16:30 7.5 7.7 7.3 34 0.0 8.3 258 23.0 1005.7
16:30 - 17:00 7.0 7.3 6.6 36 0.0 7.2 253 19.1 1006.2
17:00 - 17:30 6.7 6.9 6.5 34 0.0 7.6 233 19.8 1006.7
17:30 - 18:00 6.6 6.8 6.3 29 0.0 8.3 263 24.1 1007.3
18:00 - 18:30 6.0 6.4 5.7 31 0.0 11.9 292 30.6 1008.3
18:30 - 19:00 5.5 5.8 5.3 33 0.0 8.3 261 24.5 1009.0
19:00 - 19:30 4.6 5.4 3.8 39 0.0 5.8 169 13.7 1009.7
19:30 - 20:00 3.6 4.0 3.3 44 0.0 7.2 161 13.0 1010.2
20:00 - 20:30 3.0 3.6 2.4 46 0.0 4.3 149 12.2 1010.8
20:30 - 21:00 1.6 2.3 1.3 52 0.0 0.7 129 4.7 1011.6
21:00 - 21:30 1.1 1.4 0.9 54 0.0 1.4 109 4.3 1012.0
21:30 - 22:00 0.8 1.6 0.4 57 0.0 2.5 79 8.6 1012.2
22:00 - 22:30 0.9 1.5 0.6 57 0.0 1.4 117 4.7 1012.1
22:30 - 23:00 0.3 0.7 0.1 61 0.0 1.4 50 5.8 1012.5
23:00 - 23:30 0.3 0.7 -0.2 61 0.0 2.2 56 9.4 1012.7

Les dades en taronja només han passat un control de qualitat automàtic. Resta pendent la seva validació definitiva.